sensor_id;sensor_type;location;lat;lon;timestamp;temperature;humidity
67777;DHT22;54576;52.020;5.536;2022-11-20T00:01:46;-2.90;99.90
67777;DHT22;54576;52.020;5.536;2022-11-20T00:04:11;-3.00;99.90
67777;DHT22;54576;52.020;5.536;2022-11-20T00:06:44;-3.00;99.90
67777;DHT22;54576;52.020;5.536;2022-11-20T00:09:10;-3.00;99.90
67777;DHT22;54576;52.020;5.536;2022-11-20T00:11:37;-3.10;99.90
67777;DHT22;54576;52.020;5.536;2022-11-20T00:14:03;-3.00;99.90
67777;DHT22;54576;52.020;5.536;2022-11-20T00:16:31;-3.00;99.90
67777;DHT22;54576;52.020;5.536;2022-11-20T00:18:57;-3.00;99.90
67777;DHT22;54576;52.020;5.536;2022-11-20T00:21:25;-3.00;99.90
67777;DHT22;54576;52.020;5.536;2022-11-20T00:23:54;-3.00;99.90
67777;DHT22;54576;52.020;5.536;2022-11-20T00:26:23;-3.00;99.90
67777;DHT22;54576;52.020;5.536;2022-11-20T00:28:56;-3.10;99.90
67777;DHT22;54576;52.020;5.536;2022-11-20T00:31:22;-3.10;99.90
67777;DHT22;54576;52.020;5.536;2022-11-20T00:33:47;-3.10;99.90
67777;DHT22;54576;52.020;5.536;2022-11-20T00:36:22;-3.20;99.90
67777;DHT22;54576;52.020;5.536;2022-11-20T00:38:51;-3.20;99.90
67777;DHT22;54576;52.020;5.536;2022-11-20T00:41:17;-3.30;99.90
67777;DHT22;54576;52.020;5.536;2022-11-20T00:43:43;-3.30;99.90
67777;DHT22;54576;52.020;5.536;2022-11-20T00:46:13;-3.30;99.90
67777;DHT22;54576;52.020;5.536;2022-11-20T00:48:39;-3.30;99.90
67777;DHT22;54576;52.020;5.536;2022-11-20T00:51:05;-3.30;99.90
67777;DHT22;54576;52.020;5.536;2022-11-20T00:53:31;-3.30;99.90
67777;DHT22;54576;52.020;5.536;2022-11-20T00:56:02;-3.30;99.90
67777;DHT22;54576;52.020;5.536;2022-11-20T00:58:34;-3.30;99.90
67777;DHT22;54576;52.020;5.536;2022-11-20T01:01:21;-3.30;99.90
67777;DHT22;54576;52.020;5.536;2022-11-20T01:03:48;-3.40;99.90
67777;DHT22;54576;52.020;5.536;2022-11-20T01:06:20;-3.40;99.90
67777;DHT22;54576;52.020;5.536;2022-11-20T01:08:47;-3.40;99.90
67777;DHT22;54576;52.020;5.536;2022-11-20T01:11:15;-3.40;99.90
67777;DHT22;54576;52.020;5.536;2022-11-20T01:13:42;-3.50;99.90
67777;DHT22;54576;52.020;5.536;2022-11-20T01:18:38;-3.40;99.90
67777;DHT22;54576;52.020;5.536;2022-11-20T01:21:12;-3.50;99.90
67777;DHT22;54576;52.020;5.536;2022-11-20T01:23:41;-3.50;99.90
67777;DHT22;54576;52.020;5.536;2022-11-20T01:26:13;-3.50;99.90
67777;DHT22;54576;52.020;5.536;2022-11-20T01:28:39;-3.60;99.90
67777;DHT22;54576;52.020;5.536;2022-11-20T01:31:15;-3.60;99.90
67777;DHT22;54576;52.020;5.536;2022-11-20T01:33:42;-3.60;99.90
67777;DHT22;54576;52.020;5.536;2022-11-20T01:36:10;-3.60;99.90
67777;DHT22;54576;52.020;5.536;2022-11-20T01:38:36;-3.70;99.90
67777;DHT22;54576;52.020;5.536;2022-11-20T01:41:03;-3.70;99.90
67777;DHT22;54576;52.020;5.536;2022-11-20T01:43:29;-3.80;99.90
67777;DHT22;54576;52.020;5.536;2022-11-20T01:48:57;-3.90;99.90
67777;DHT22;54576;52.020;5.536;2022-11-20T01:51:42;-3.90;99.90
67777;DHT22;54576;52.020;5.536;2022-11-20T01:54:21;-3.90;99.90
67777;DHT22;54576;52.020;5.536;2022-11-20T01:56:51;-3.80;99.90
67777;DHT22;54576;52.020;5.536;2022-11-20T01:59:19;-3.80;99.90
67777;DHT22;54576;52.020;5.536;2022-11-20T02:01:46;-3.80;99.90
67777;DHT22;54576;52.020;5.536;2022-11-20T02:04:13;-3.90;99.90
67777;DHT22;54576;52.020;5.536;2022-11-20T02:06:44;-3.90;99.90
67777;DHT22;54576;52.020;5.536;2022-11-20T02:09:10;-3.80;99.90
67777;DHT22;54576;52.020;5.536;2022-11-20T02:11:36;-3.80;99.90
67777;DHT22;54576;52.020;5.536;2022-11-20T02:14:04;-3.80;99.90
67777;DHT22;54576;52.020;5.536;2022-11-20T02:16:37;-3.70;99.90
67777;DHT22;54576;52.020;5.536;2022-11-20T02:19:07;-3.80;99.90
67777;DHT22;54576;52.020;5.536;2022-11-20T02:24:30;-3.70;99.90
67777;DHT22;54576;52.020;5.536;2022-11-20T02:29:31;-3.70;99.90
67777;DHT22;54576;52.020;5.536;2022-11-20T02:31:58;-3.70;99.90
67777;DHT22;54576;52.020;5.536;2022-11-20T02:34:25;-3.80;99.90
67777;DHT22;54576;52.020;5.536;2022-11-20T02:36:53;-3.80;99.90
67777;DHT22;54576;52.020;5.536;2022-11-20T02:39:19;-3.80;99.90
67777;DHT22;54576;52.020;5.536;2022-11-20T02:41:46;-3.80;99.90
67777;DHT22;54576;52.020;5.536;2022-11-20T02:44:12;-3.70;99.90
67777;DHT22;54576;52.020;5.536;2022-11-20T02:46:37;-3.70;99.90
67777;DHT22;54576;52.020;5.536;2022-11-20T02:49:04;-3.70;99.90
67777;DHT22;54576;52.020;5.536;2022-11-20T02:51:31;-3.80;99.90
67777;DHT22;54576;52.020;5.536;2022-11-20T02:53:57;-3.80;99.90
67777;DHT22;54576;52.020;5.536;2022-11-20T02:56:23;-3.80;99.90
67777;DHT22;54576;52.020;5.536;2022-11-20T02:58:49;-3.90;99.90
67777;DHT22;54576;52.020;5.536;2022-11-20T03:01:15;-3.90;99.90
67777;DHT22;54576;52.020;5.536;2022-11-20T03:03:42;-3.90;99.90
67777;DHT22;54576;52.020;5.536;2022-11-20T03:06:11;-4.00;99.90
67777;DHT22;54576;52.020;5.536;2022-11-20T03:08:36;-4.00;99.90
67777;DHT22;54576;52.020;5.536;2022-11-20T03:11:07;-4.00;99.90
67777;DHT22;54576;52.020;5.536;2022-11-20T03:13:34;-4.00;99.90
67777;DHT22;54576;52.020;5.536;2022-11-20T03:16:08;-4.10;99.90
67777;DHT22;54576;52.020;5.536;2022-11-20T03:18:35;-4.10;99.90
67777;DHT22;54576;52.020;5.536;2022-11-20T03:21:01;-4.10;99.90
67777;DHT22;54576;52.020;5.536;2022-11-20T03:23:29;-4.10;99.90
67777;DHT22;54576;52.020;5.536;2022-11-20T03:25:56;-4.10;99.90
67777;DHT22;54576;52.020;5.536;2022-11-20T03:28:32;-4.10;99.90
67777;DHT22;54576;52.020;5.536;2022-11-20T03:30:58;-4.10;99.90
67777;DHT22;54576;52.020;5.536;2022-11-20T03:33:23;-4.10;99.90
67777;DHT22;54576;52.020;5.536;2022-11-20T03:35:50;-4.10;99.90
67777;DHT22;54576;52.020;5.536;2022-11-20T03:38:18;-4.10;99.90
67777;DHT22;54576;52.020;5.536;2022-11-20T03:40:44;-4.10;99.90
67777;DHT22;54576;52.020;5.536;2022-11-20T03:43:10;-4.10;99.90
67777;DHT22;54576;52.020;5.536;2022-11-20T03:45:35;-4.10;99.90
67777;DHT22;54576;52.020;5.536;2022-11-20T03:48:01;-4.10;99.90
67777;DHT22;54576;52.020;5.536;2022-11-20T03:50:26;-4.10;99.90
67777;DHT22;54576;52.020;5.536;2022-11-20T03:52:53;-4.10;99.90
67777;DHT22;54576;52.020;5.536;2022-11-20T03:55:18;-4.10;99.90
67777;DHT22;54576;52.020;5.536;2022-11-20T03:57:45;-4.10;99.90
67777;DHT22;54576;52.020;5.536;2022-11-20T04:00:11;-4.10;99.90
67777;DHT22;54576;52.020;5.536;2022-11-20T04:02:37;-4.20;99.90
67777;DHT22;54576;52.020;5.536;2022-11-20T04:05:03;-4.20;99.90
67777;DHT22;54576;52.020;5.536;2022-11-20T04:07:28;-4.20;99.90
67777;DHT22;54576;52.020;5.536;2022-11-20T04:09:54;-4.20;99.90
67777;DHT22;54576;52.020;5.536;2022-11-20T04:12:19;-4.20;99.90
67777;DHT22;54576;52.020;5.536;2022-11-20T04:14:45;-4.20;99.90
67777;DHT22;54576;52.020;5.536;2022-11-20T04:17:10;-4.20;99.90
67777;DHT22;54576;52.020;5.536;2022-11-20T04:19:37;-4.20;99.90
67777;DHT22;54576;52.020;5.536;2022-11-20T04:22:03;-4.20;99.90
67777;DHT22;54576;52.020;5.536;2022-11-20T04:24:28;-4.20;99.90
67777;DHT22;54576;52.020;5.536;2022-11-20T04:26:54;-4.10;99.90
67777;DHT22;54576;52.020;5.536;2022-11-20T04:29:20;-4.10;99.90
67777;DHT22;54576;52.020;5.536;2022-11-20T04:31:45;-4.10;99.90
67777;DHT22;54576;52.020;5.536;2022-11-20T04:34:11;-4.10;99.90
67777;DHT22;54576;52.020;5.536;2022-11-20T04:36:37;-4.10;99.90
67777;DHT22;54576;52.020;5.536;2022-11-20T04:39:04;-4.10;99.90
67777;DHT22;54576;52.020;5.536;2022-11-20T04:41:33;-4.10;99.90
67777;DHT22;54576;52.020;5.536;2022-11-20T04:44:01;-4.10;99.90
67777;DHT22;54576;52.020;5.536;2022-11-20T04:46:35;-4.10;99.90
67777;DHT22;54576;52.020;5.536;2022-11-20T04:49:01;-4.10;99.90
67777;DHT22;54576;52.020;5.536;2022-11-20T04:51:27;-4.10;99.90
67777;DHT22;54576;52.020;5.536;2022-11-20T04:53:53;-4.10;99.90
67777;DHT22;54576;52.020;5.536;2022-11-20T04:56:19;-4.10;99.90
67777;DHT22;54576;52.020;5.536;2022-11-20T04:58:45;-4.10;99.90
67777;DHT22;54576;52.020;5.536;2022-11-20T05:03:40;-4.10;99.90
67777;DHT22;54576;52.020;5.536;2022-11-20T05:06:07;-4.10;99.90
67777;DHT22;54576;52.020;5.536;2022-11-20T05:08:33;-4.20;99.90
67777;DHT22;54576;52.020;5.536;2022-11-20T05:11:09;-4.20;99.90
67777;DHT22;54576;52.020;5.536;2022-11-20T05:13:40;-4.20;99.90
67777;DHT22;54576;52.020;5.536;2022-11-20T05:16:07;-4.20;99.90
67777;DHT22;54576;52.020;5.536;2022-11-20T05:18:37;-4.30;99.90
67777;DHT22;54576;52.020;5.536;2022-11-20T05:21:04;-4.30;99.90
67777;DHT22;54576;52.020;5.536;2022-11-20T05:23:32;-4.30;99.90
67777;DHT22;54576;52.020;5.536;2022-11-20T05:25:58;-4.30;99.90
67777;DHT22;54576;52.020;5.536;2022-11-20T05:28:25;-4.20;99.90
67777;DHT22;54576;52.020;5.536;2022-11-20T05:30:51;-4.20;99.90
67777;DHT22;54576;52.020;5.536;2022-11-20T05:33:17;-4.20;99.90
67777;DHT22;54576;52.020;5.536;2022-11-20T05:35:43;-4.20;99.90
67777;DHT22;54576;52.020;5.536;2022-11-20T05:38:09;-4.10;99.90
67777;DHT22;54576;52.020;5.536;2022-11-20T05:40:35;-4.10;99.90
67777;DHT22;54576;52.020;5.536;2022-11-20T05:43:01;-4.20;99.90
67777;DHT22;54576;52.020;5.536;2022-11-20T05:45:27;-4.10;99.90
67777;DHT22;54576;52.020;5.536;2022-11-20T05:47:53;-4.10;99.90
67777;DHT22;54576;52.020;5.536;2022-11-20T05:50:18;-4.20;99.90
67777;DHT22;54576;52.020;5.536;2022-11-20T05:52:44;-4.20;99.90
67777;DHT22;54576;52.020;5.536;2022-11-20T05:55:09;-4.20;99.90
67777;DHT22;54576;52.020;5.536;2022-11-20T05:57:35;-4.20;99.90
67777;DHT22;54576;52.020;5.536;2022-11-20T06:00:01;-4.30;99.90
67777;DHT22;54576;52.020;5.536;2022-11-20T06:02:30;-4.30;99.90
67777;DHT22;54576;52.020;5.536;2022-11-20T06:04:55;-4.40;99.90
67777;DHT22;54576;52.020;5.536;2022-11-20T06:07:21;-4.50;99.90
67777;DHT22;54576;52.020;5.536;2022-11-20T06:09:46;-4.50;99.90
67777;DHT22;54576;52.020;5.536;2022-11-20T06:12:12;-4.50;99.90
67777;DHT22;54576;52.020;5.536;2022-11-20T06:14:37;-4.60;99.90
67777;DHT22;54576;52.020;5.536;2022-11-20T06:17:03;-4.60;99.90
67777;DHT22;54576;52.020;5.536;2022-11-20T06:19:31;-4.60;99.90
67777;DHT22;54576;52.020;5.536;2022-11-20T06:21:56;-4.60;99.90
67777;DHT22;54576;52.020;5.536;2022-11-20T06:24:22;-4.60;99.90
67777;DHT22;54576;52.020;5.536;2022-11-20T06:26:48;-4.70;99.90
67777;DHT22;54576;52.020;5.536;2022-11-20T06:29:14;-4.70;99.90
67777;DHT22;54576;52.020;5.536;2022-11-20T06:31:39;-4.70;99.90
67777;DHT22;54576;52.020;5.536;2022-11-20T06:34:05;-4.60;99.90
67777;DHT22;54576;52.020;5.536;2022-11-20T06:36:31;-4.60;99.90
67777;DHT22;54576;52.020;5.536;2022-11-20T06:38:57;-4.60;99.90
67777;DHT22;54576;52.020;5.536;2022-11-20T06:41:23;-4.60;99.90
67777;DHT22;54576;52.020;5.536;2022-11-20T06:43:49;-4.60;99.90
67777;DHT22;54576;52.020;5.536;2022-11-20T06:46:16;-4.60;99.90
67777;DHT22;54576;52.020;5.536;2022-11-20T06:48:46;-4.60;99.90
67777;DHT22;54576;52.020;5.536;2022-11-20T06:51:12;-4.50;99.90
67777;DHT22;54576;52.020;5.536;2022-11-20T06:53:38;-4.50;99.90
67777;DHT22;54576;52.020;5.536;2022-11-20T06:56:04;-4.50;99.90
67777;DHT22;54576;52.020;5.536;2022-11-20T06:58:31;-4.40;99.90
67777;DHT22;54576;52.020;5.536;2022-11-20T07:01:05;-4.40;99.90
67777;DHT22;54576;52.020;5.536;2022-11-20T07:03:31;-4.40;99.90
67777;DHT22;54576;52.020;5.536;2022-11-20T07:05:57;-4.40;99.90
67777;DHT22;54576;52.020;5.536;2022-11-20T07:08:24;-4.30;99.90
67777;DHT22;54576;52.020;5.536;2022-11-20T07:10:49;-4.40;99.90
67777;DHT22;54576;52.020;5.536;2022-11-20T07:13:15;-4.30;99.90
67777;DHT22;54576;52.020;5.536;2022-11-20T07:15:42;-4.20;99.90
67777;DHT22;54576;52.020;5.536;2022-11-20T07:18:08;-4.20;99.90
67777;DHT22;54576;52.020;5.536;2022-11-20T07:20:33;-4.10;99.90
67777;DHT22;54576;52.020;5.536;2022-11-20T07:22:59;-4.00;99.90
67777;DHT22;54576;52.020;5.536;2022-11-20T07:25:26;-4.00;99.90
67777;DHT22;54576;52.020;5.536;2022-11-20T07:27:57;-4.00;99.90
67777;DHT22;54576;52.020;5.536;2022-11-20T07:30:30;-3.90;99.90
67777;DHT22;54576;52.020;5.536;2022-11-20T07:32:57;-3.90;99.90
67777;DHT22;54576;52.020;5.536;2022-11-20T07:35:26;-3.80;99.90
67777;DHT22;54576;52.020;5.536;2022-11-20T07:37:52;-3.80;99.90
67777;DHT22;54576;52.020;5.536;2022-11-20T07:40:18;-3.80;99.90
67777;DHT22;54576;52.020;5.536;2022-11-20T07:42:51;-3.80;99.90
67777;DHT22;54576;52.020;5.536;2022-11-20T07:45:18;-3.70;99.90
67777;DHT22;54576;52.020;5.536;2022-11-20T07:47:44;-3.70;99.90
67777;DHT22;54576;52.020;5.536;2022-11-20T07:50:10;-3.60;99.90
67777;DHT22;54576;52.020;5.536;2022-11-20T07:52:36;-3.50;99.90
67777;DHT22;54576;52.020;5.536;2022-11-20T07:55:01;-3.40;99.90
67777;DHT22;54576;52.020;5.536;2022-11-20T07:57:27;-3.40;99.90
67777;DHT22;54576;52.020;5.536;2022-11-20T07:59:52;-3.20;99.90
67777;DHT22;54576;52.020;5.536;2022-11-20T08:02:21;-3.20;99.90
67777;DHT22;54576;52.020;5.536;2022-11-20T08:04:46;-3.10;99.90
67777;DHT22;54576;52.020;5.536;2022-11-20T08:07:12;-3.00;99.90
67777;DHT22;54576;52.020;5.536;2022-11-20T08:09:38;-2.90;99.90
67777;DHT22;54576;52.020;5.536;2022-11-20T08:12:03;-2.80;99.90
67777;DHT22;54576;52.020;5.536;2022-11-20T08:14:47;-2.70;99.90
67777;DHT22;54576;52.020;5.536;2022-11-20T08:17:13;-2.60;99.90
67777;DHT22;54576;52.020;5.536;2022-11-20T08:19:40;-2.50;99.90
67777;DHT22;54576;52.020;5.536;2022-11-20T08:22:05;-2.40;99.90
67777;DHT22;54576;52.020;5.536;2022-11-20T08:24:31;-2.20;99.90
67777;DHT22;54576;52.020;5.536;2022-11-20T08:27:00;-2.10;99.90
67777;DHT22;54576;52.020;5.536;2022-11-20T08:29:26;-2.00;99.90
67777;DHT22;54576;52.020;5.536;2022-11-20T08:31:52;-1.90;99.90
67777;DHT22;54576;52.020;5.536;2022-11-20T08:34:18;-1.80;99.90
67777;DHT22;54576;52.020;5.536;2022-11-20T08:36:43;-1.70;99.90
67777;DHT22;54576;52.020;5.536;2022-11-20T08:39:11;-1.60;99.90
67777;DHT22;54576;52.020;5.536;2022-11-20T08:41:37;-1.50;99.90
67777;DHT22;54576;52.020;5.536;2022-11-20T08:44:05;-1.40;99.90
67777;DHT22;54576;52.020;5.536;2022-11-20T08:46:39;-1.30;99.90
67777;DHT22;54576;52.020;5.536;2022-11-20T08:49:08;-1.20;99.90
67777;DHT22;54576;52.020;5.536;2022-11-20T08:51:34;-1.20;99.90
67777;DHT22;54576;52.020;5.536;2022-11-20T08:54:00;-1.10;99.90
67777;DHT22;54576;52.020;5.536;2022-11-20T08:56:26;-1.00;99.90
67777;DHT22;54576;52.020;5.536;2022-11-20T08:58:52;-0.90;99.90
67777;DHT22;54576;52.020;5.536;2022-11-20T09:01:18;-0.90;99.90
67777;DHT22;54576;52.020;5.536;2022-11-20T09:03:45;-0.80;99.90
67777;DHT22;54576;52.020;5.536;2022-11-20T09:06:10;-0.70;99.90
67777;DHT22;54576;52.020;5.536;2022-11-20T09:08:36;-0.60;99.90
67777;DHT22;54576;52.020;5.536;2022-11-20T09:11:03;-0.60;99.90
67777;DHT22;54576;52.020;5.536;2022-11-20T09:13:30;-0.50;99.90
67777;DHT22;54576;52.020;5.536;2022-11-20T09:15:57;-0.50;99.90
67777;DHT22;54576;52.020;5.536;2022-11-20T09:18:26;-0.50;99.90
67777;DHT22;54576;52.020;5.536;2022-11-20T09:20:57;-0.50;99.90
67777;DHT22;54576;52.020;5.536;2022-11-20T09:23:24;-0.50;99.90
67777;DHT22;54576;52.020;5.536;2022-11-20T09:25:49;-0.50;99.90
67777;DHT22;54576;52.020;5.536;2022-11-20T09:28:15;-0.40;99.90
67777;DHT22;54576;52.020;5.536;2022-11-20T09:30:41;-0.30;99.90
67777;DHT22;54576;52.020;5.536;2022-11-20T09:33:07;-0.20;99.90
67777;DHT22;54576;52.020;5.536;2022-11-20T09:35:33;-0.10;99.90
67777;DHT22;54576;52.020;5.536;2022-11-20T09:38:03;-0.10;99.90
67777;DHT22;54576;52.020;5.536;2022-11-20T09:40:29;0.00;99.90
67777;DHT22;54576;52.020;5.536;2022-11-20T09:45:43;0.10;99.90
67777;DHT22;54576;52.020;5.536;2022-11-20T09:53:41;0.30;99.90
67777;DHT22;54576;52.020;5.536;2022-11-20T09:56:11;0.40;99.90
67777;DHT22;54576;52.020;5.536;2022-11-20T09:59:08;0.50;99.90
67777;DHT22;54576;52.020;5.536;2022-11-20T10:01:38;0.60;99.90
67777;DHT22;54576;52.020;5.536;2022-11-20T10:04:19;0.70;99.90
67777;DHT22;54576;52.020;5.536;2022-11-20T10:07:08;0.80;99.90
67777;DHT22;54576;52.020;5.536;2022-11-20T10:09:40;0.80;99.90
67777;DHT22;54576;52.020;5.536;2022-11-20T10:20:58;0.90;99.90
67777;DHT22;54576;52.020;5.536;2022-11-20T10:29:17;1.10;99.90
67777;DHT22;54576;52.020;5.536;2022-11-20T10:31:46;1.20;99.90
67777;DHT22;54576;52.020;5.536;2022-11-20T10:34:28;1.20;99.90
67777;DHT22;54576;52.020;5.536;2022-11-20T10:40:04;1.30;99.90
67777;DHT22;54576;52.020;5.536;2022-11-20T10:42:48;1.30;99.90
67777;DHT22;54576;52.020;5.536;2022-11-20T10:48:04;1.40;99.90
67777;DHT22;54576;52.020;5.536;2022-11-20T10:50:36;1.50;99.90
67777;DHT22;54576;52.020;5.536;2022-11-20T10:55:57;1.80;99.90
67777;DHT22;54576;52.020;5.536;2022-11-20T10:58:59;1.80;99.90
67777;DHT22;54576;52.020;5.536;2022-11-20T11:01:26;1.90;99.90
67777;DHT22;54576;52.020;5.536;2022-11-20T11:03:53;1.90;99.90
67777;DHT22;54576;52.020;5.536;2022-11-20T11:06:37;2.00;99.90
67777;DHT22;54576;52.020;5.536;2022-11-20T11:09:21;2.10;99.90
67777;DHT22;54576;52.020;5.536;2022-11-20T11:11:49;2.10;99.90
67777;DHT22;54576;52.020;5.536;2022-11-20T11:14:15;2.20;99.90
67777;DHT22;54576;52.020;5.536;2022-11-20T11:16:51;2.30;99.90
67777;DHT22;54576;52.020;5.536;2022-11-20T11:19:16;2.40;99.90
67777;DHT22;54576;52.020;5.536;2022-11-20T11:21:47;2.40;99.90
67777;DHT22;54576;52.020;5.536;2022-11-20T11:24:22;2.50;99.90
67777;DHT22;54576;52.020;5.536;2022-11-20T11:27:11;2.50;99.90
67777;DHT22;54576;52.020;5.536;2022-11-20T11:29:37;2.50;99.90
67777;DHT22;54576;52.020;5.536;2022-11-20T11:32:08;2.50;99.90
67777;DHT22;54576;52.020;5.536;2022-11-20T11:34:36;2.50;99.90
67777;DHT22;54576;52.020;5.536;2022-11-20T11:37:02;2.50;99.90
67777;DHT22;54576;52.020;5.536;2022-11-20T11:39:30;2.50;99.90
67777;DHT22;54576;52.020;5.536;2022-11-20T11:41:57;2.50;99.90
67777;DHT22;54576;52.020;5.536;2022-11-20T11:47:35;2.50;99.90
67777;DHT22;54576;52.020;5.536;2022-11-20T11:52:56;2.50;99.90
67777;DHT22;54576;52.020;5.536;2022-11-20T11:55:59;2.50;99.90
67777;DHT22;54576;52.020;5.536;2022-11-20T11:58:48;2.40;99.90
67777;DHT22;54576;52.020;5.536;2022-11-20T12:10:04;2.50;99.90
67777;DHT22;54576;52.020;5.536;2022-11-20T12:12:44;2.50;99.90
67777;DHT22;54576;52.020;5.536;2022-11-20T12:15:13;2.60;99.90
67777;DHT22;54576;52.020;5.536;2022-11-20T12:17:41;2.60;99.90
67777;DHT22;54576;52.020;5.536;2022-11-20T12:20:13;2.60;99.90
67777;DHT22;54576;52.020;5.536;2022-11-20T12:23:02;2.60;99.90
67777;DHT22;54576;52.020;5.536;2022-11-20T12:25:31;2.60;99.90
67777;DHT22;54576;52.020;5.536;2022-11-20T12:34:08;2.60;99.90
67777;DHT22;54576;52.020;5.536;2022-11-20T12:39:17;2.70;99.90
67777;DHT22;54576;52.020;5.536;2022-11-20T12:41:51;2.60;99.90
67777;DHT22;54576;52.020;5.536;2022-11-20T12:50:47;2.60;99.90
67777;DHT22;54576;52.020;5.536;2022-11-20T12:53:22;2.60;99.90
67777;DHT22;54576;52.020;5.536;2022-11-20T13:05:02;2.50;99.90
67777;DHT22;54576;52.020;5.536;2022-11-20T13:07:32;2.60;99.90
67777;DHT22;54576;52.020;5.536;2022-11-20T13:09:59;2.60;99.90
67777;DHT22;54576;52.020;5.536;2022-11-20T13:12:41;2.60;99.90
67777;DHT22;54576;52.020;5.536;2022-11-20T13:15:34;2.70;99.90
67777;DHT22;54576;52.020;5.536;2022-11-20T13:18:04;2.70;99.90
67777;DHT22;54576;52.020;5.536;2022-11-20T13:20:32;2.70;99.90
67777;DHT22;54576;52.020;5.536;2022-11-20T13:22:58;2.80;99.90
67777;DHT22;54576;52.020;5.536;2022-11-20T13:25:42;2.80;99.90
67777;DHT22;54576;52.020;5.536;2022-11-20T13:30:37;2.80;99.90
67777;DHT22;54576;52.020;5.536;2022-11-20T13:33:32;2.80;99.90
67777;DHT22;54576;52.020;5.536;2022-11-20T13:36:04;2.90;99.90
67777;DHT22;54576;52.020;5.536;2022-11-20T13:38:46;2.90;99.90
67777;DHT22;54576;52.020;5.536;2022-11-20T13:41:22;2.90;99.90
67777;DHT22;54576;52.020;5.536;2022-11-20T13:44:22;2.90;99.90
67777;DHT22;54576;52.020;5.536;2022-11-20T13:46:48;2.80;99.90
67777;DHT22;54576;52.020;5.536;2022-11-20T13:49:38;2.90;99.90
67777;DHT22;54576;52.020;5.536;2022-11-20T13:52:43;2.80;99.90
67777;DHT22;54576;52.020;5.536;2022-11-20T13:55:42;2.90;99.90
67777;DHT22;54576;52.020;5.536;2022-11-20T14:01:16;2.90;99.90
67777;DHT22;54576;52.020;5.536;2022-11-20T14:03:42;2.90;99.90
67777;DHT22;54576;52.020;5.536;2022-11-20T14:06:16;2.90;99.90
67777;DHT22;54576;52.020;5.536;2022-11-20T14:08:49;2.80;99.90
67777;DHT22;54576;52.020;5.536;2022-11-20T14:11:16;2.80;99.90
67777;DHT22;54576;52.020;5.536;2022-11-20T14:14:01;2.80;99.90
67777;DHT22;54576;52.020;5.536;2022-11-20T14:16:35;2.80;99.90
67777;DHT22;54576;52.020;5.536;2022-11-20T14:21:49;2.80;99.90
67777;DHT22;54576;52.020;5.536;2022-11-20T14:24:21;2.80;99.90
67777;DHT22;54576;52.020;5.536;2022-11-20T14:26:47;2.80;99.90
67777;DHT22;54576;52.020;5.536;2022-11-20T14:29:19;2.80;99.90
67777;DHT22;54576;52.020;5.536;2022-11-20T14:31:46;2.80;99.90
67777;DHT22;54576;52.020;5.536;2022-11-20T14:34:18;2.70;99.90
67777;DHT22;54576;52.020;5.536;2022-11-20T14:36:45;2.70;99.90
67777;DHT22;54576;52.020;5.536;2022-11-20T14:39:21;2.70;99.90
67777;DHT22;54576;52.020;5.536;2022-11-20T14:41:51;2.70;99.90
67777;DHT22;54576;52.020;5.536;2022-11-20T14:44:17;2.70;99.90
67777;DHT22;54576;52.020;5.536;2022-11-20T14:46:43;2.80;99.90
67777;DHT22;54576;52.020;5.536;2022-11-20T14:49:10;2.80;99.90
67777;DHT22;54576;52.020;5.536;2022-11-20T14:51:38;2.80;99.90
67777;DHT22;54576;52.020;5.536;2022-11-20T14:54:20;2.80;99.90
67777;DHT22;54576;52.020;5.536;2022-11-20T14:56:59;2.80;99.90
67777;DHT22;54576;52.020;5.536;2022-11-20T14:59:27;2.80;99.90
67777;DHT22;54576;52.020;5.536;2022-11-20T15:02:03;2.80;99.90
67777;DHT22;54576;52.020;5.536;2022-11-20T15:04:29;2.80;99.90
67777;DHT22;54576;52.020;5.536;2022-11-20T15:06:56;2.80;99.90
67777;DHT22;54576;52.020;5.536;2022-11-20T15:09:23;2.80;99.90
67777;DHT22;54576;52.020;5.536;2022-11-20T15:11:57;2.80;99.90
67777;DHT22;54576;52.020;5.536;2022-11-20T15:14:25;2.80;99.90
67777;DHT22;54576;52.020;5.536;2022-11-20T15:16:51;2.80;99.90
67777;DHT22;54576;52.020;5.536;2022-11-20T15:19:20;2.80;99.90
67777;DHT22;54576;52.020;5.536;2022-11-20T15:21:46;2.80;99.90
67777;DHT22;54576;52.020;5.536;2022-11-20T15:24:12;2.80;99.90
67777;DHT22;54576;52.020;5.536;2022-11-20T15:26:38;2.80;99.90
67777;DHT22;54576;52.020;5.536;2022-11-20T15:29:11;2.80;99.90
67777;DHT22;54576;52.020;5.536;2022-11-20T15:31:37;2.90;99.90
67777;DHT22;54576;52.020;5.536;2022-11-20T15:34:13;2.80;99.90
67777;DHT22;54576;52.020;5.536;2022-11-20T15:36:40;2.90;99.90
67777;DHT22;54576;52.020;5.536;2022-11-20T15:39:06;2.90;99.90
67777;DHT22;54576;52.020;5.536;2022-11-20T15:41:37;2.90;99.90
67777;DHT22;54576;52.020;5.536;2022-11-20T15:44:03;2.90;99.90
67777;DHT22;54576;52.020;5.536;2022-11-20T15:46:32;2.90;99.90
67777;DHT22;54576;52.020;5.536;2022-11-20T15:49:02;3.00;99.90
67777;DHT22;54576;52.020;5.536;2022-11-20T15:51:35;2.90;99.90
67777;DHT22;54576;52.020;5.536;2022-11-20T15:54:10;3.00;99.90
67777;DHT22;54576;52.020;5.536;2022-11-20T15:56:36;3.00;99.90
67777;DHT22;54576;52.020;5.536;2022-11-20T15:59:02;3.00;99.90
67777;DHT22;54576;52.020;5.536;2022-11-20T16:01:28;3.00;99.90
67777;DHT22;54576;52.020;5.536;2022-11-20T16:03:53;3.00;99.90
67777;DHT22;54576;52.020;5.536;2022-11-20T16:06:19;3.00;99.90
67777;DHT22;54576;52.020;5.536;2022-11-20T16:08:45;3.00;99.90
67777;DHT22;54576;52.020;5.536;2022-11-20T16:11:16;3.00;99.90
67777;DHT22;54576;52.020;5.536;2022-11-20T16:13:42;3.10;99.90
67777;DHT22;54576;52.020;5.536;2022-11-20T16:16:30;3.10;99.90
67777;DHT22;54576;52.020;5.536;2022-11-20T16:18:56;3.10;99.90
67777;DHT22;54576;52.020;5.536;2022-11-20T16:21:22;3.20;99.90
67777;DHT22;54576;52.020;5.536;2022-11-20T16:24:05;3.20;99.90
67777;DHT22;54576;52.020;5.536;2022-11-20T16:26:31;3.30;99.90
67777;DHT22;54576;52.020;5.536;2022-11-20T16:28:58;3.20;99.90
67777;DHT22;54576;52.020;5.536;2022-11-20T16:31:24;3.30;99.90
67777;DHT22;54576;52.020;5.536;2022-11-20T16:33:51;3.30;99.90
67777;DHT22;54576;52.020;5.536;2022-11-20T16:36:17;3.30;99.90
67777;DHT22;54576;52.020;5.536;2022-11-20T16:38:43;3.40;99.90
67777;DHT22;54576;52.020;5.536;2022-11-20T16:41:09;3.40;99.90
67777;DHT22;54576;52.020;5.536;2022-11-20T16:43:52;3.40;99.90
67777;DHT22;54576;52.020;5.536;2022-11-20T16:46:21;3.40;99.90
67777;DHT22;54576;52.020;5.536;2022-11-20T16:48:58;3.40;99.90
67777;DHT22;54576;52.020;5.536;2022-11-20T16:51:25;3.40;99.90
67777;DHT22;54576;52.020;5.536;2022-11-20T16:53:51;3.50;99.90
67777;DHT22;54576;52.020;5.536;2022-11-20T16:56:19;3.50;99.90
67777;DHT22;54576;52.020;5.536;2022-11-20T16:58:46;3.50;99.90
67777;DHT22;54576;52.020;5.536;2022-11-20T17:01:15;3.50;99.90
67777;DHT22;54576;52.020;5.536;2022-11-20T17:03:42;3.50;99.90
67777;DHT22;54576;52.020;5.536;2022-11-20T17:06:14;3.50;99.90
67777;DHT22;54576;52.020;5.536;2022-11-20T17:08:41;3.60;99.90
67777;DHT22;54576;52.020;5.536;2022-11-20T17:11:12;3.50;99.90
67777;DHT22;54576;52.020;5.536;2022-11-20T17:13:38;3.50;99.90
67777;DHT22;54576;52.020;5.536;2022-11-20T17:16:07;3.60;99.90
67777;DHT22;54576;52.020;5.536;2022-11-20T17:18:33;3.60;99.90
67777;DHT22;54576;52.020;5.536;2022-11-20T17:20:59;3.60;99.90
67777;DHT22;54576;52.020;5.536;2022-11-20T17:23:30;3.60;99.90